Time;durP1;ratioP1;P1;durP2;ratioP2;P2;SDS_P1;SDS_P2;PMS_P1;PMS_P2;Temp;Humidity;BMP_temperature;BMP_pressure;BME280_temperature;BME280_humidity;BME280_pressure;Samples;Min_cycle;Max_cycle;Signal;HPM_P1;HPM_P2
2022/08/10 00:00:50;;;;;;;2.53;1.20;;;19.30;99.90;;;;;;7315876;32;20108;-63
2022/08/10 00:04:52;;;;;;;3.85;1.25;;;19.30;99.90;;;;;;7320799;32;20520;-63
2022/08/10 00:08:54;;;;;;;4.22;1.52;;;19.20;99.90;;;;;;7309995;32;20095;-64
2022/08/10 00:12:55;;;;;;;4.40;1.35;;;19.10;99.90;;;;;;7317249;32;20146;-64
2022/08/10 00:16:57;;;;;;;4.40;1.45;;;19.10;99.90;;;;;;7318771;32;20095;-64
2022/08/10 00:20:59;;;;;;;3.70;1.30;;;18.90;99.90;;;;;;7311085;32;20262;-64
2022/08/10 00:25:01;;;;;;;4.22;1.20;;;18.90;99.90;;;;;;7306099;32;20200;-64
2022/08/10 00:29:04;;;;;;;2.85;1.40;;;18.90;99.90;;;;;;7315227;32;20818;-64
2022/08/10 00:33:09;;;;;;;3.28;1.33;;;18.90;99.90;;;;;;7316780;32;20100;-64
2022/08/10 00:37:13;;;;;;;3.25;1.75;;;18.80;99.90;;;;;;7317543;32;20191;-64
2022/08/10 00:41:15;;;;;;;5.03;1.50;;;18.80;99.90;;;;;;7308790;32;20091;-64
2022/08/10 00:45:16;;;;;;;3.30;1.45;;;18.80;99.90;;;;;;7312345;32;20356;-63
2022/08/10 00:49:18;;;;;;;3.85;1.33;;;18.60;99.90;;;;;;7308645;32;20218;-64
2022/08/10 00:53:20;;;;;;;4.75;1.50;;;18.60;99.90;;;;;;7317274;32;20706;-64
2022/08/10 00:57:24;;;;;;;3.90;1.50;;;18.60;99.90;;;;;;7319454;32;20142;-63
2022/08/10 01:01:26;;;;;;;5.95;1.48;;;18.60;99.90;;;;;;7311399;32;20461;-63
2022/08/10 01:06:20;;;;;;;4.60;1.40;;;18.50;99.90;;;;;;7316081;32;20204;-63
2022/08/10 01:10:41;;;;;;;4.53;1.58;;;18.50;99.90;;;;;;7314757;32;20266;-64
2022/08/10 01:14:54;;;;;;;3.75;1.30;;;18.40;99.90;;;;;;7311579;32;20227;-64
2022/08/10 01:19:47;;;;;;;4.28;1.50;;;18.40;99.90;;;;;;7312575;32;20766;-64
2022/08/10 01:24:23;;;;;;;3.62;1.48;;;18.30;99.90;;;;;;7309487;32;20219;-64
2022/08/10 01:28:50;;;;;;;4.22;1.70;;;18.30;99.90;;;;;;7268027;32;20402;-63
2022/08/10 01:33:09;;;;;;;5.53;1.80;;;18.30;99.90;;;;;;7315721;32;20251;-64
2022/08/10 01:37:13;;;;;;;8.75;1.70;;;18.30;99.90;;;;;;7315489;32;20541;-64
2022/08/10 01:41:21;;;;;;;2.37;1.42;;;18.20;99.90;;;;;;7309030;32;20126;-64
2022/08/10 01:45:24;;;;;;;4.50;2.08;;;18.10;99.90;;;;;;7311859;32;20285;-64
2022/08/10 01:49:27;;;;;;;4.82;1.98;;;18.10;99.90;;;;;;7314450;32;20115;-63
2022/08/10 01:53:36;;;;;;;5.15;1.65;;;18.10;99.90;;;;;;7314484;32;20129;-63
2022/08/10 01:57:44;;;;;;;3.87;1.67;;;18.00;99.90;;;;;;7314336;32;20264;-63
2022/08/10 02:01:52;;;;;;;3.10;1.65;;;18.00;99.90;;;;;;7307988;32;20103;-63
2022/08/10 02:05:56;;;;;;;2.97;1.83;;;17.90;99.90;;;;;;7301768;32;20121;-64
2022/08/10 02:10:02;;;;;;;2.65;1.80;;;17.90;99.90;;;;;;7304027;32;20282;-63
2022/08/10 02:14:05;;;;;;;4.37;1.87;;;17.90;99.90;;;;;;7308938;32;20241;-64
2022/08/10 02:18:08;;;;;;;5.70;1.70;;;17.90;99.90;;;;;;7308518;32;20254;-63
2022/08/10 02:22:12;;;;;;;4.43;1.80;;;17.90;99.90;;;;;;7309115;32;20293;-64
2022/08/10 02:26:34;;;;;;;7.45;1.95;;;17.80;99.90;;;;;;7313573;32;20230;-63
2022/08/10 02:30:37;;;;;;;5.10;2.08;;;17.80;99.90;;;;;;7312313;32;20524;-64
2022/08/10 02:34:40;;;;;;;2.65;1.90;;;17.70;99.90;;;;;;7317710;32;20203;-63
2022/08/10 02:38:52;;;;;;;4.37;1.70;;;17.70;99.90;;;;;;7313656;32;20340;-64
2022/08/10 02:43:16;;;;;;;3.80;1.80;;;17.60;99.90;;;;;;7318460;32;20122;-64
2022/08/10 02:47:44;;;;;;;3.53;1.85;;;17.50;99.90;;;;;;7314972;32;20122;-64
2022/08/10 02:52:00;;;;;;;4.68;1.87;;;17.50;99.90;;;;;;7314951;32;20206;-64
2022/08/10 02:56:15;;;;;;;4.40;1.95;;;17.40;99.90;;;;;;7321425;32;20507;-63
2022/08/10 03:00:17;;;;;;;4.85;1.70;;;17.30;99.90;;;;;;7311189;32;20100;-63
2022/08/10 03:04:26;;;;;;;5.12;1.95;;;17.30;99.90;;;;;;7319018;32;20111;-64
2022/08/10 03:08:49;;;;;;;4.28;1.98;;;17.30;99.90;;;;;;7313333;32;20114;-63
2022/08/10 03:12:56;;;;;;;4.62;1.90;;;17.20;99.90;;;;;;7312843;32;20187;-63
2022/08/10 03:17:00;;;;;;;4.60;1.97;;;17.10;99.90;;;;;;7313267;32;20245;-63
2022/08/10 03:21:03;;;;;;;6.53;2.00;;;17.00;99.90;;;;;;7314906;32;20878;-64
2022/08/10 03:25:12;;;;;;;3.03;1.90;;;17.00;99.90;;;;;;7311133;32;20213;-63
2022/08/10 03:29:15;;;;;;;3.30;1.98;;;16.90;99.90;;;;;;7318160;32;20239;-63
2022/08/10 03:33:20;;;;;;;6.18;2.42;;;16.80;99.90;;;;;;7313978;32;20171;-64
2022/08/10 03:37:22;;;;;;;5.05;2.12;;;16.80;99.90;;;;;;7312676;32;21176;-64
2022/08/10 03:41:35;;;;;;;4.78;2.00;;;16.70;99.90;;;;;;7317951;32;20342;-64
2022/08/10 03:45:37;;;;;;;4.53;1.98;;;16.70;99.90;;;;;;7312611;32;20155;-64
2022/08/10 03:49:59;;;;;;;5.90;2.10;;;16.60;99.90;;;;;;7311349;32;20206;-64
2022/08/10 03:54:21;;;;;;;4.07;2.17;;;16.60;99.90;;;;;;7313660;32;20375;-63
2022/08/10 03:58:23;;;;;;;7.50;2.03;;;16.60;99.90;;;;;;7298363;32;20356;-63
2022/08/10 04:02:26;;;;;;;6.25;1.90;;;16.60;99.90;;;;;;7317696;32;20274;-63
2022/08/10 04:06:48;;;;;;;3.10;2.00;;;16.60;99.90;;;;;;7319360;32;20168;-63
2022/08/10 04:10:55;;;;;;;4.80;2.33;;;16.60;99.90;;;;;;7317664;32;20140;-63
2022/08/10 04:14:57;;;;;;;5.18;2.00;;;16.60;99.90;;;;;;7318258;32;20835;-63
2022/08/10 04:18:59;;;;;;;3.95;2.05;;;16.60;99.90;;;;;;7313515;32;20124;-63
2022/08/10 04:23:07;;;;;;;4.43;2.20;;;16.60;99.90;;;;;;7313994;32;20116;-62
2022/08/10 04:27:10;;;;;;;3.12;2.12;;;16.60;99.90;;;;;;7317361;32;20096;-63
2022/08/10 04:31:15;;;;;;;5.62;2.25;;;16.60;99.90;;;;;;7319111;32;20196;-63
2022/08/10 04:35:19;;;;;;;3.50;2.00;;;16.60;99.90;;;;;;7313705;32;20123;-62
2022/08/10 04:39:21;;;;;;;7.55;2.12;;;16.60;99.90;;;;;;7316642;32;20119;-62
2022/08/10 04:43:23;;;;;;;5.18;2.10;;;16.60;99.90;;;;;;7318212;32;20216;-64
2022/08/10 04:47:24;;;;;;;4.75;2.10;;;16.60;99.90;;;;;;7309282;32;20218;-64
2022/08/10 04:51:46;;;;;;;4.85;2.30;;;16.70;99.90;;;;;;7314857;32;20230;-64
2022/08/10 04:55:48;;;;;;;3.72;2.10;;;16.70;99.90;;;;;;7308837;32;20721;-63
2022/08/10 04:59:50;;;;;;;4.95;2.17;;;16.80;99.90;;;;;;7313647;32;20233;-64
2022/08/10 05:03:51;;;;;;;3.95;1.87;;;17.00;99.90;;;;;;7315025;32;20123;-64
2022/08/10 05:08:13;;;;;;;4.78;1.90;;;17.30;99.90;;;;;;7310217;32;20219;-63
2022/08/10 05:12:15;;;;;;;4.80;2.12;;;17.50;99.90;;;;;;7313676;32;20104;-66
2022/08/10 05:16:17;;;;;;;2.55;2.08;;;17.80;99.90;;;;;;7312906;32;20229;-65
2022/08/10 05:20:32;;;;;;;5.30;2.22;;;17.70;99.90;;;;;;7312304;32;20239;-64
2022/08/10 05:24:34;;;;;;;4.20;1.92;;;17.50;99.90;;;;;;7304661;32;20176;-65
2022/08/10 05:28:36;;;;;;;3.92;2.20;;;17.20;99.90;;;;;;7311470;32;20099;-65
2022/08/10 05:32:38;;;;;;;7.65;2.20;;;17.10;99.90;;;;;;7311223;32;20233;-64
2022/08/10 05:37:00;;;;;;;6.00;2.33;;;16.90;99.90;;;;;;7319810;32;20207;-65
2022/08/10 05:41:03;;;;;;;3.97;2.33;;;16.80;99.90;;;;;;7309920;32;20327;-65
2022/08/10 05:45:08;;;;;;;4.47;2.50;;;16.90;99.90;;;;;;7314144;32;20131;-65
2022/08/10 05:49:09;;;;;;;4.87;2.53;;;16.80;99.90;;;;;;7309627;32;20223;-65
2022/08/10 05:53:11;;;;;;;6.90;2.83;;;16.90;99.90;;;;;;7305079;32;20111;-64
2022/08/10 05:57:35;;;;;;;4.72;2.40;;;16.90;99.90;;;;;;7313990;32;20250;-64
2022/08/10 06:01:42;;;;;;;5.35;2.90;;;17.00;99.90;;;;;;7300463;32;20096;-65
2022/08/10 06:06:07;;;;;;;6.97;2.45;;;17.10;99.90;;;;;;7308379;32;20257;-65
2022/08/10 06:10:13;;;;;;;4.68;3.28;;;17.10;99.90;;;;;;7312459;32;20532;-65
2022/08/10 06:19:02;;;;;;;6.05;2.47;;;17.40;99.90;;;;;;7309626;32;20108;-65
2022/08/10 06:23:04;;;;;;;3.83;2.35;;;17.40;99.90;;;;;;7308032;32;20730;-64
2022/08/10 06:27:07;;;;;;;4.20;2.33;;;17.60;99.90;;;;;;7315843;32;20277;-66
2022/08/10 06:31:11;;;;;;;4.72;1.92;;;17.70;99.90;;;;;;7313478;32;20118;-64
2022/08/10 06:35:14;;;;;;;5.62;2.15;;;17.90;99.90;;;;;;7313166;32;20214;-64
2022/08/10 06:39:16;;;;;;;5.72;2.35;;;18.20;99.90;;;;;;7319359;32;20099;-64
2022/08/10 06:43:39;;;;;;;4.43;2.30;;;18.60;99.90;;;;;;7320358;32;20138;-65
2022/08/10 06:47:44;;;;;;;3.75;2.58;;;18.90;99.90;;;;;;7304853;32;20541;-65
2022/08/10 06:51:53;;;;;;;7.43;2.42;;;19.10;99.90;;;;;;7316981;32;20694;-63
2022/08/10 06:56:02;;;;;;;7.32;2.70;;;19.30;99.90;;;;;;7314652;32;20121;-65
2022/08/10 07:00:06;;;;;;;3.90;2.10;;;19.60;99.90;;;;;;7317080;32;20194;-64
2022/08/10 07:04:12;;;;;;;5.07;2.35;;;19.80;99.90;;;;;;7318444;32;20174;-63
2022/08/10 07:08:17;;;;;;;4.65;2.00;;;19.90;99.90;;;;;;7318226;32;20206;-64
2022/08/10 07:12:20;;;;;;;4.90;2.20;;;20.10;99.90;;;;;;7323130;32;20140;-64
2022/08/10 07:16:27;;;;;;;5.82;2.08;;;20.30;99.90;;;;;;7314860;32;20135;-64
2022/08/10 07:20:29;;;;;;;6.60;2.60;;;20.50;99.90;;;;;;7309810;32;20096;-65
2022/08/10 07:24:34;;;;;;;6.95;2.53;;;20.60;99.90;;;;;;7319397;32;20178;-65
2022/08/10 07:28:36;;;;;;;8.25;2.30;;;20.80;99.90;;;;;;7315350;32;20230;-65
2022/08/10 07:32:43;;;;;;;7.68;2.70;;;20.90;99.90;;;;;;7312490;32;20128;-65
2022/08/10 07:36:46;;;;;;;;;;;21.10;99.90;;;;;;7313994;32;20122;-65
2022/08/10 07:40:50;;;;;;;8.35;2.28;;;21.20;99.90;;;;;;7317276;32;20011;-64
2022/08/10 07:44:52;;;;;;;5.00;2.30;;;21.40;99.90;;;;;;7312282;32;20864;-64
2022/08/10 07:49:06;;;;;;;6.47;2.30;;;21.60;99.90;;;;;;7317198;32;20210;-64
2022/08/10 07:53:25;;;;;;;4.47;2.40;;;21.70;99.90;;;;;;7317728;32;20121;-65
2022/08/10 07:57:29;;;;;;;4.97;2.10;;;22.00;99.90;;;;;;7317320;32;20112;-63
2022/08/10 08:01:40;;;;;;;5.95;1.98;;;22.10;99.90;;;;;;7313583;32;20658;-64
2022/08/10 08:05:43;;;;;;;5.10;2.30;;;22.10;99.90;;;;;;7311015;32;20727;-65
2022/08/10 08:10:07;;;;;;;3.30;2.30;;;22.20;99.90;;;;;;7318401;32;20131;-63
2022/08/10 08:14:18;;;;;;;5.20;2.03;;;22.30;99.90;;;;;;7318003;32;20127;-64
2022/08/10 08:18:21;;;;;;;4.30;2.33;;;22.50;99.90;;;;;;7317274;32;20166;-64
2022/08/10 08:22:27;;;;;;;3.60;2.20;;;22.70;99.90;;;;;;7308163;32;20531;-64
2022/08/10 08:26:50;;;;;;;7.28;2.53;;;22.80;99.90;;;;;;7313239;32;20597;-64
2022/08/10 08:30:53;;;;;;;5.30;2.62;;;23.10;99.90;;;;;;7314534;32;20170;-65
2022/08/10 08:35:02;;;;;;;8.02;2.60;;;23.20;99.90;;;;;;7320321;32;20245;-64
2022/08/10 08:39:04;;;;;;;5.75;2.47;;;23.60;99.90;;;;;;7311053;32;20277;-63
2022/08/10 08:43:30;;;;;;;4.87;2.58;;;23.80;99.90;;;;;;7316428;32;20115;-65
2022/08/10 08:48:02;;;;;;;6.00;2.08;;;24.30;99.90;;;;;;7309850;32;20217;-66
2022/08/10 08:52:16;;;;;;;7.12;2.40;;;25.30;99.90;;;;;;7311498;32;20130;-65
2022/08/10 08:56:48;;;;;;;6.68;2.25;;;26.10;99.90;;;;;;7317347;32;20126;-66
2022/08/10 09:01:12;;;;;;;4.90;2.30;;;26.80;99.90;;;;;;7316818;32;20283;-66
2022/08/10 09:05:36;;;;;;;7.85;1.70;;;28.20;97.70;;;;;;7315961;32;20235;-65
2022/08/10 09:10:33;;;;;;;4.28;2.00;;;29.20;94.20;;;;;;7310625;32;20124;-66
2022/08/10 09:14:54;;;;;;;6.72;2.17;;;29.40;91.50;;;;;;7313395;32;20128;-67
2022/08/10 09:19:05;;;;;;;4.32;2.33;;;29.80;89.50;;;;;;7312482;32;20193;-64
2022/08/10 09:23:23;;;;;;;4.82;1.77;;;29.90;83.90;;;;;;7314739;32;20221;-67
2022/08/10 09:28:08;;;;;;;3.70;1.92;;;30.70;82.30;;;;;;7317882;32;20506;-67
2022/08/10 09:32:20;;;;;;;3.95;1.90;;;31.10;74.70;;;;;;7303137;32;20100;-66
2022/08/10 09:36:58;;;;;;;3.55;1.90;;;31.20;70.60;;;;;;7319619;32;20125;-66
2022/08/10 09:41:32;;;;;;;5.97;2.05;;;31.10;69.10;;;;;;7322737;32;20131;-66
2022/08/10 09:45:58;;;;;;;4.53;2.03;;;30.70;68.60;;;;;;7316595;32;20213;-66
2022/08/10 09:50:32;;;;;;;7.10;2.00;;;31.00;70.50;;;;;;7310887;32;20119;-65
2022/08/10 09:55:31;;;;;;;5.18;2.00;;;30.80;69.20;;;;;;7310150;32;20187;-65
2022/08/10 09:59:53;;;;;;;5.87;1.90;;;30.30;70.10;;;;;;7316710;32;20130;-66
2022/08/10 10:04:36;;;;;;;3.78;1.98;;;30.70;71.50;;;;;;7319860;32;20398;-65
2022/08/10 10:09:17;;;;;;;3.97;2.17;;;30.80;68.00;;;;;;7318747;32;20567;-65
2022/08/10 10:13:43;;;;;;;6.68;2.30;;;30.50;66.70;;;;;;7290732;32;20162;-66
2022/08/10 10:18:28;;;;;;;6.53;2.08;;;29.90;63.90;;;;;;7313175;32;20538;-65
2022/08/10 10:22:52;;;;;;;2.92;2.00;;;31.00;71.10;;;;;;7317535;32;20168;-65
2022/08/10 10:27:08;;;;;;;5.57;2.10;;;31.10;67.20;;;;;;7318123;32;20111;-65
2022/08/10 10:32:09;;;;;;;7.87;2.30;;;31.20;63.80;;;;;;7317990;32;20119;-66
2022/08/10 10:36:14;;;;;;;2.20;2.00;;;30.70;63.80;;;;;;7293683;32;20198;-64
2022/08/10 10:40:18;;;;;;;3.30;2.28;;;30.30;61.30;;;;;;7314649;32;20245;-65
2022/08/10 10:44:42;;;;;;;5.50;2.45;;;30.40;61.80;;;;;;7317092;32;20291;-65
2022/08/10 10:49:13;;;;;;;5.35;2.10;;;31.00;68.60;;;;;;7319895;32;20232;-65
2022/08/10 10:53:29;;;;;;;3.47;2.10;;;31.00;65.90;;;;;;7310923;32;20258;-65
2022/08/10 10:57:53;;;;;;;4.65;2.08;;;31.20;61.70;;;;;;7316025;32;20179;-61
2022/08/10 11:02:39;;;;;;;4.30;2.08;;;30.70;61.50;;;;;;7314774;32;20107;-65
2022/08/10 11:07:03;;;;;;;5.28;2.25;;;30.70;64.40;;;;;;7314505;32;20188;-66
2022/08/10 11:11:09;;;;;;;7.05;2.40;;;30.40;60.20;;;;;;7317033;32;20104;-66
2022/08/10 11:15:42;;;;;;;5.72;2.37;;;30.10;62.60;;;;;;7314564;32;20141;-65
2022/08/10 11:20:01;;;;;;;;;;;30.30;61.00;;;;;;7317939;32;20128;-66
2022/08/10 11:24:46;;;;;;;8.90;2.80;;;30.20;62.10;;;;;;7323879;32;20775;-66
2022/08/10 11:29:02;;;;;;;7.35;2.50;;;30.40;61.70;;;;;;7279549;32;20131;-66
2022/08/10 11:33:48;;;;;;;6.03;2.53;;;30.40;62.80;;;;;;7321400;32;20179;-65
2022/08/10 11:38:39;;;;;;;3.28;2.10;;;30.60;60.70;;;;;;7299296;32;20108;-66
2022/08/10 11:43:26;;;;;;;4.45;2.35;;;30.70;63.60;;;;;;7322653;32;20436;-66
2022/08/10 11:47:40;;;;;;;7.03;2.42;;;30.70;59.80;;;;;;7324544;32;20111;-66
2022/08/10 11:51:47;;;;;;;4.30;2.22;;;30.50;61.30;;;;;;7316835;32;20208;-65
2022/08/10 11:55:57;;;;;;;4.57;2.55;;;30.70;60.90;;;;;;7323797;32;20183;-66
2022/08/10 11:59:59;;;;;;;4.87;2.28;;;30.40;59.10;;;;;;7318058;32;20133;-66
2022/08/10 12:04:06;;;;;;;4.65;2.25;;;30.70;61.90;;;;;;7321439;32;20138;-66
2022/08/10 12:08:18;;;;;;;3.65;2.10;;;30.90;60.60;;;;;;7313722;32;20107;-65
2022/08/10 12:12:49;;;;;;;5.12;2.10;;;30.50;59.60;;;;;;7323530;32;20112;-66
2022/08/10 12:17:02;;;;;;;5.05;2.35;;;30.60;59.30;;;;;;7315941;32;20191;-66
2022/08/10 12:21:15;;;;;;;10.00;2.60;;;30.50;60.30;;;;;;7323194;32;20165;-66
2022/08/10 12:25:31;;;;;;;4.30;1.98;;;30.50;62.70;;;;;;7318613;32;20433;-66
2022/08/10 12:29:57;;;;;;;5.35;2.55;;;30.30;59.40;;;;;;7313808;32;20108;-65
2022/08/10 12:34:10;;;;;;;5.68;2.62;;;29.90;60.50;;;;;;7314428;32;20126;-65
2022/08/10 12:38:42;;;;;;;2.67;1.85;;;30.10;60.40;;;;;;7314819;32;20179;-66
2022/08/10 12:43:05;;;;;;;3.75;2.12;;;30.00;61.60;;;;;;7313815;32;20587;-66
2022/08/10 12:47:43;;;;;;;4.62;1.90;;;30.50;60.00;;;;;;7317469;32;20249;-66
2022/08/10 12:51:55;;;;;;;6.32;2.80;;;30.30;59.40;;;;;;7315218;32;20214;-66
2022/08/10 12:55:57;;;;;;;4.62;1.70;;;30.50;60.40;;;;;;7316244;32;20181;-66
2022/08/10 13:00:01;;;;;;;2.55;1.70;;;30.70;59.50;;;;;;7315278;32;20180;-66
2022/08/10 13:04:08;;;;;;;3.30;2.00;;;30.80;59.40;;;;;;7315106;32;20111;-66
2022/08/10 13:13:06;;;;;;;6.22;1.85;;;30.30;58.90;;;;;;7247706;32;20167;-67
2022/08/10 13:17:09;;;;;;;3.87;1.92;;;30.60;58.00;;;;;;7284092;32;20176;-66
2022/08/10 13:21:16;;;;;;;8.50;1.87;;;30.40;57.70;;;;;;7318830;32;20175;-65
2022/08/10 13:25:30;;;;;;;3.85;1.70;;;30.50;58.20;;;;;;7319279;32;20545;-66
2022/08/10 13:29:35;;;;;;;5.65;2.00;;;30.60;58.20;;;;;;7317047;32;20305;-66
2022/08/10 13:33:44;;;;;;;2.55;1.60;;;30.30;57.90;;;;;;7314291;32;20119;-67
2022/08/10 13:38:07;;;;;;;3.20;2.10;;;30.30;56.90;;;;;;7311547;32;20625;-66
2022/08/10 13:42:12;;;;;;;2.97;1.80;;;30.50;57.30;;;;;;7312800;32;20161;-64
2022/08/10 13:46:16;;;;;;;4.37;1.70;;;30.70;55.70;;;;;;7320206;32;20131;-66
2022/08/10 13:50:25;;;;;;;5.30;1.83;;;31.00;55.70;;;;;;7314801;32;20555;-66
2022/08/10 13:54:40;;;;;;;4.12;1.80;;;30.70;54.60;;;;;;7314153;32;20100;-66
2022/08/10 13:58:46;;;;;;;6.40;1.87;;;30.40;55.00;;;;;;7299236;32;20178;-66
2022/08/10 14:02:58;;;;;;;2.83;1.75;;;30.20;55.50;;;;;;7317393;32;20531;-66
2022/08/10 14:07:00;;;;;;;3.80;1.60;;;30.20;56.20;;;;;;7314188;32;20204;-67
2022/08/10 14:11:08;;;;;;;3.75;1.60;;;30.30;55.90;;;;;;7315579;32;20764;-66
2022/08/10 14:15:18;;;;;;;5.50;1.85;;;30.30;56.50;;;;;;7315699;32;20129;-63
2022/08/10 14:19:25;;;;;;;3.72;1.80;;;30.60;55.10;;;;;;7311261;32;20120;-65
2022/08/10 14:23:30;;;;;;;5.15;1.50;;;30.50;55.10;;;;;;7312889;32;20127;-66
2022/08/10 14:27:35;;;;;;;1.98;1.50;;;30.50;56.00;;;;;;7316812;32;20623;-66
2022/08/10 14:31:59;;;;;;;2.70;1.70;;;30.40;55.40;;;;;;7314751;32;20128;-66
2022/08/10 14:36:06;;;;;;;6.80;1.98;;;30.40;54.70;;;;;;7308633;32;20560;-66
2022/08/10 14:40:32;;;;;;;2.62;1.40;;;30.70;55.00;;;;;;7313842;32;20195;-66
2022/08/10 14:44:44;;;;;;;3.28;1.67;;;30.90;55.70;;;;;;7318207;32;20152;-66
2022/08/10 14:48:47;;;;;;;4.62;1.60;;;30.90;54.40;;;;;;7313575;32;20332;-66
2022/08/10 14:52:50;;;;;;;3.00;1.50;;;30.60;54.30;;;;;;7314333;32;20147;-66
2022/08/10 14:56:54;;;;;;;7.35;1.50;;;30.30;55.00;;;;;;7316589;32;20139;-64
2022/08/10 15:00:57;;;;;;;2.78;1.37;;;30.00;55.10;;;;;;7322463;32;20340;-66
2022/08/10 15:04:59;;;;;;;4.37;1.50;;;30.10;55.00;;;;;;7313895;32;20149;-66
2022/08/10 15:09:09;;;;;;;4.55;2.30;;;30.10;55.40;;;;;;7321321;32;20132;-66
2022/08/10 15:13:20;;;;;;;5.68;1.80;;;29.90;55.30;;;;;;7316759;32;20115;-66
2022/08/10 15:17:41;;;;;;;8.38;1.55;;;29.80;55.90;;;;;;7319524;32;20211;-66
2022/08/10 15:21:44;;;;;;;4.00;1.65;;;29.80;55.50;;;;;;7314932;32;20341;-67
2022/08/10 15:25:48;;;;;;;3.45;1.75;;;29.60;55.80;;;;;;7316537;32;20678;-65
2022/08/10 15:30:07;;;;;;;3.50;1.48;;;29.40;55.60;;;;;;7317733;32;20271;-66
2022/08/10 15:38:34;;;;;;;5.37;1.17;;;29.20;56.40;;;;;;7313180;32;20100;-67
2022/08/10 15:42:38;;;;;;;7.32;1.35;;;29.10;56.20;;;;;;7321571;32;20211;-67
2022/08/10 15:46:56;;;;;;;9.85;1.87;;;29.10;56.40;;;;;;7322695;32;20195;-66
2022/08/10 15:51:04;;;;;;;4.25;1.30;;;29.00;56.40;;;;;;7312002;32;20140;-65
2022/08/10 15:55:15;;;;;;;3.53;1.65;;;29.00;55.70;;;;;;7322084;32;20111;-68
2022/08/10 15:59:49;;;;;;;2.95;1.40;;;28.80;55.90;;;;;;7314717;32;20112;-67
2022/08/10 16:04:26;;;;;;;7.47;1.62;;;28.70;55.90;;;;;;7316772;32;20249;-67
2022/08/10 16:08:42;;;;;;;2.22;1.50;;;28.70;56.30;;;;;;7317335;32;20209;-65
2022/08/10 16:13:09;;;;;;;2.95;1.02;;;28.50;56.60;;;;;;7314820;32;20123;-66
2022/08/10 16:17:33;;;;;;;3.08;1.37;;;28.50;56.50;;;;;;7313479;32;20656;-66
2022/08/10 16:21:59;;;;;;;3.62;1.25;;;28.40;56.70;;;;;;7323820;32;20205;-65
2022/08/10 16:26:06;;;;;;;2.30;1.67;;;28.40;56.50;;;;;;7323855;32;20187;-66
2022/08/10 16:30:16;;;;;;;5.05;1.85;;;28.30;55.90;;;;;;7312415;32;20199;-66
2022/08/10 16:34:28;;;;;;;3.47;1.77;;;28.30;56.30;;;;;;7315361;32;20103;-65
2022/08/10 16:38:39;;;;;;;1.85;1.20;;;28.10;56.10;;;;;;7320375;32;20751;-65
2022/08/10 16:42:47;;;;;;;3.60;1.30;;;28.00;56.20;;;;;;7310062;32;20576;-65
2022/08/10 16:47:09;;;;;;;3.40;1.30;;;28.00;56.40;;;;;;7321983;32;20202;-65
2022/08/10 16:51:29;;;;;;;5.97;1.50;;;28.00;56.50;;;;;;7316469;32;20123;-65
2022/08/10 16:55:32;;;;;;;5.28;1.45;;;27.80;57.00;;;;;;7315842;32;20193;-65
2022/08/10 16:59:53;;;;;;;4.47;1.70;;;27.80;56.70;;;;;;7323330;32;20111;-65
2022/08/10 17:04:01;;;;;;;4.47;1.48;;;27.90;56.30;;;;;;7315372;32;20566;-66
2022/08/10 17:08:13;;;;;;;2.83;1.15;;;27.80;57.10;;;;;;7318366;32;20113;-66
2022/08/10 17:12:18;;;;;;;9.68;1.35;;;27.90;56.80;;;;;;7323928;32;20585;-66
2022/08/10 17:16:20;;;;;;;3.47;1.40;;;27.70;57.30;;;;;;7315946;32;20530;-66
2022/08/10 17:20:30;;;;;;;3.05;0.98;;;27.60;57.50;;;;;;7317492;32;20214;-65
2022/08/10 17:24:46;;;;;;;3.62;1.27;;;27.70;57.30;;;;;;7314840;32;20799;-65
2022/08/10 17:28:50;;;;;;;2.55;1.30;;;27.60;57.10;;;;;;7318922;32;20116;-64
2022/08/10 17:32:59;;;;;;;2.40;1.40;;;27.60;56.70;;;;;;7317041;32;20260;-66
2022/08/10 17:37:14;;;;;;;5.05;1.37;;;27.50;57.20;;;;;;7309881;32;20115;-65
2022/08/10 17:41:22;;;;;;;1.58;1.25;;;27.40;58.00;;;;;;7314795;32;20120;-66
2022/08/10 17:45:28;;;;;;;2.25;1.25;;;27.30;57.40;;;;;;7317244;32;20680;-65
2022/08/10 17:49:55;;;;;;;3.08;1.48;;;27.20;56.90;;;;;;7310414;32;20111;-65
2022/08/10 17:54:01;;;;;;;2.67;1.12;;;27.30;57.60;;;;;;7311235;32;20291;-63
2022/08/10 17:58:10;;;;;;;2.85;1.10;;;27.30;56.80;;;;;;7312547;32;20108;-62
2022/08/10 18:02:19;;;;;;;3.33;1.40;;;27.10;57.70;;;;;;7310304;32;20270;-65
2022/08/10 18:06:22;;;;;;;4.50;1.30;;;26.90;57.70;;;;;;7313072;32;20119;-67
2022/08/10 18:10:28;;;;;;;6.18;1.35;;;26.80;57.60;;;;;;7307496;32;20131;-67
2022/08/10 18:14:47;;;;;;;2.80;1.02;;;26.70;57.60;;;;;;7301731;32;20111;-65
2022/08/10 18:18:50;;;;;;;2.65;1.40;;;26.60;57.90;;;;;;7319306;32;20107;-65
2022/08/10 18:23:02;;;;;;;6.20;1.55;;;26.40;59.10;;;;;;7319671;32;20193;-66
2022/08/10 18:27:14;;;;;;;3.85;1.83;;;26.30;59.40;;;;;;7315928;32;20132;-66
2022/08/10 18:31:19;;;;;;;1.40;1.10;;;26.20;59.40;;;;;;7311820;32;21051;-66
2022/08/10 18:35:29;;;;;;;4.62;1.40;;;26.10;59.80;;;;;;7327629;32;20165;-67
2022/08/10 18:39:39;;;;;;;5.20;1.45;;;26.00;60.20;;;;;;7316373;32;20129;-66
2022/08/10 18:44:13;;;;;;;5.20;1.58;;;25.90;60.50;;;;;;7319466;32;20144;-66
2022/08/10 18:48:18;;;;;;;2.97;1.33;;;25.80;61.60;;;;;;7298486;32;20779;-65
2022/08/10 18:52:23;;;;;;;5.85;1.35;;;25.50;62.50;;;;;;7308777;32;20846;-67
2022/08/10 18:56:28;;;;;;;5.93;1.73;;;25.40;62.90;;;;;;7320713;32;20128;-67
2022/08/10 19:00:44;;;;;;;4.72;1.42;;;25.40;62.50;;;;;;7310516;32;20265;-66
2022/08/10 19:04:53;;;;;;;4.07;1.85;;;25.20;63.80;;;;;;7320710;32;20177;-67
2022/08/10 19:09:20;;;;;;;2.80;1.17;;;25.00;65.00;;;;;;7316273;32;20129;-66
2022/08/10 19:14:02;;;;;;;1.92;1.30;;;24.90;65.20;;;;;;7312637;32;21112;-67
2022/08/10 19:18:26;;;;;;;3.80;1.35;;;24.70;65.40;;;;;;7312947;32;20111;-65
2022/08/10 19:22:35;;;;;;;4.93;1.73;;;24.70;65.80;;;;;;7312761;32;20227;-66
2022/08/10 19:27:04;;;;;;;2.35;1.60;;;24.50;66.40;;;;;;7316185;32;20255;-65
2022/08/10 19:31:11;;;;;;;9.50;3.72;;;24.40;66.50;;;;;;7311681;32;20762;-64
2022/08/10 19:35:21;;;;;;;2.83;1.52;;;24.30;66.90;;;;;;7310344;32;20209;-63
2022/08/10 19:39:48;;;;;;;4.12;1.27;;;24.20;67.10;;;;;;7312873;32;20123;-67
2022/08/10 19:43:58;;;;;;;3.22;1.27;;;24.10;68.10;;;;;;7318600;32;20715;-66
2022/08/10 19:48:28;;;;;;;3.15;1.27;;;24.00;68.70;;;;;;7309117;32;20171;-65
2022/08/10 19:53:01;;;;;;;2.20;1.12;;;23.80;69.30;;;;;;7308018;32;21001;-64
2022/08/10 19:57:10;;;;;;;6.37;1.80;;;23.70;68.90;;;;;;7312381;32;20206;-64
2022/08/10 20:01:13;;;;;;;2.78;1.85;;;23.50;71.50;;;;;;7312171;32;20281;-64
2022/08/10 20:05:28;;;;;;;3.60;1.60;;;23.40;71.20;;;;;;7317840;32;20528;-65
2022/08/10 20:09:51;;;;;;;1.62;1.17;;;23.30;71.50;;;;;;7307833;32;20408;-64
2022/08/10 20:14:21;;;;;;;3.33;1.45;;;23.20;71.40;;;;;;7315387;32;20126;-65
2022/08/10 20:18:43;;;;;;;8.82;1.40;;;23.10;73.00;;;;;;7314160;32;20196;-65
2022/08/10 20:22:49;;;;;;;6.03;1.75;;;23.10;73.00;;;;;;7311573;32;20100;-68
2022/08/10 20:26:58;;;;;;;4.83;1.57;;;22.90;74.10;;;;;;7314765;32;20640;-65
2022/08/10 20:31:25;;;;;;;2.70;1.73;;;22.80;74.70;;;;;;7301577;32;20245;-65
2022/08/10 20:35:37;;;;;;;4.95;1.42;;;22.70;75.10;;;;;;7313693;32;20195;-63
2022/08/10 20:40:00;;;;;;;2.53;1.60;;;22.70;75.10;;;;;;7311983;32;20115;-65
2022/08/10 20:44:27;;;;;;;5.18;1.50;;;22.70;75.10;;;;;;7314582;32;20197;-64
2022/08/10 20:48:35;;;;;;;5.30;1.80;;;22.70;75.30;;;;;;7310801;32;20133;-64
2022/08/10 20:52:38;;;;;;;9.25;1.70;;;22.60;75.80;;;;;;7310846;32;20228;-64
2022/08/10 20:56:57;;;;;;;4.40;1.70;;;22.40;77.50;;;;;;7306068;32;20115;-64
2022/08/10 21:01:02;;;;;;;2.55;1.80;;;22.30;79.60;;;;;;7312849;32;20112;-64
2022/08/10 21:05:23;;;;;;;4.62;1.70;;;22.20;78.50;;;;;;7313374;32;20116;-65
2022/08/10 21:10:08;;;;;;;5.03;1.75;;;22.00;79.30;;;;;;7307653;32;20157;-64
2022/08/10 21:14:19;;;;;;;2.72;1.50;;;21.90;79.80;;;;;;7316228;32;20207;-66
2022/08/10 21:18:46;;;;;;;4.15;1.73;;;21.90;80.40;;;;;;7297080;32;20159;-65
2022/08/10 21:22:54;;;;;;;5.40;1.80;;;21.80;82.60;;;;;;7318173;32;20127;-65
2022/08/10 22:59:00;;;;;;;3.35;1.70;;;20.60;93.00;;;;;;7305924;32;20181;-63
2022/08/10 23:03:06;;;;;;;3.83;1.75;;;20.40;95.80;;;;;;7303540;32;20104;-64
2022/08/10 23:07:17;;;;;;;4.55;1.73;;;20.20;97.30;;;;;;7316536;32;20466;-63
2022/08/10 23:11:27;;;;;;;4.20;1.90;;;20.00;99.90;;;;;;7302588;32;20214;-63
2022/08/10 23:20:09;;;;;;;5.45;2.20;;;19.50;99.90;;;;;;7316535;32;20104;-63
2022/08/10 23:24:12;;;;;;;4.32;1.60;;;19.40;99.90;;;;;;7315615;32;20199;-63
2022/08/10 23:28:17;;;;;;;3.00;1.80;;;19.20;99.90;;;;;;7317040;32;20119;-63
2022/08/10 23:32:42;;;;;;;4.32;1.73;;;19.10;99.90;;;;;;7310619;32;20201;-63
2022/08/10 23:36:48;;;;;;;3.17;1.62;;;19.00;99.90;;;;;;7312002;32;20514;-63
2022/08/10 23:40:52;;;;;;;3.78;2.05;;;18.80;99.90;;;;;;7315583;32;20257;-62
2022/08/10 23:44:58;;;;;;;2.33;1.80;;;18.70;99.90;;;;;;7312232;32;20521;-63
2022/08/10 23:49:02;;;;;;;3.58;2.17;;;18.40;99.90;;;;;;7311646;32;20126;-63